createdAt,value
2022-12-12T00:00:55.197Z,43.50
2022-12-12T00:03:24.230Z,51.13
2022-12-12T00:05:55.223Z,44.37
2022-12-12T00:08:22.941Z,44.23
2022-12-12T00:10:50.648Z,44.40
2022-12-12T00:13:18.253Z,45.87
2022-12-12T00:15:47.433Z,51.83
2022-12-12T00:18:15.083Z,57.03
2022-12-12T00:20:42.767Z,52.03
2022-12-12T00:23:10.385Z,45.47
2022-12-12T00:25:38.047Z,55.27
2022-12-12T00:28:05.971Z,51.60
2022-12-12T00:30:33.580Z,45.90
2022-12-12T00:33:02.649Z,50.40
2022-12-12T00:35:30.267Z,45.23
2022-12-12T00:37:57.871Z,45.30
2022-12-12T00:40:25.540Z,45.17
2022-12-12T00:42:53.123Z,51.17
2022-12-12T00:45:20.706Z,43.60
2022-12-12T00:47:48.374Z,43.63
2022-12-12T00:50:17.427Z,42.27
2022-12-12T00:52:45.038Z,46.40
2022-12-12T00:55:13.361Z,46.23
2022-12-12T00:57:41.209Z,47.03
2022-12-12T01:00:10.607Z,45.97
2022-12-12T01:02:38.232Z,45.27
2022-12-12T01:05:07.309Z,48.30
2022-12-12T01:07:36.371Z,45.47
2022-12-12T01:10:05.626Z,46.80
2022-12-12T01:12:33.620Z,44.53
2022-12-12T01:15:01.394Z,43.17
2022-12-12T01:17:29.870Z,45.13
2022-12-12T01:19:57.466Z,48.77
2022-12-12T01:22:25.099Z,54.60
2022-12-12T01:24:56.913Z,66.17
2022-12-12T01:27:24.583Z,56.57
2022-12-12T01:29:52.196Z,56.40
2022-12-12T01:32:19.827Z,60.13
2022-12-12T01:34:47.411Z,61.43
2022-12-12T01:37:14.974Z,68.13
2022-12-12T01:39:43.656Z,75.90
2022-12-12T01:42:14.603Z,60.43
2022-12-12T01:44:45.648Z,57.73
2022-12-12T01:47:13.988Z,53.60
2022-12-12T01:49:43.936Z,50.70
2022-12-12T01:52:15.008Z,53.83
2022-12-12T01:54:48.019Z,55.23
2022-12-12T01:57:21.791Z,58.47
2022-12-12T01:59:49.532Z,48.87
2022-12-12T02:02:17.423Z,50.77
2022-12-12T02:04:45.182Z,49.10
2022-12-12T02:07:12.979Z,60.23
2022-12-12T02:09:41.623Z,54.43
2022-12-12T02:12:13.703Z,54.50
2022-12-12T02:14:48.118Z,50.47
2022-12-12T02:17:30.273Z,49.90
2022-12-12T02:20:38.340Z,57.90
2022-12-12T02:23:40.704Z,55.17
2022-12-12T02:26:44.963Z,48.73
2022-12-12T02:29:57.231Z,57.27
2022-12-12T02:32:33.427Z,56.60
2022-12-12T02:35:07.139Z,46.37
2022-12-12T02:37:42.215Z,70.03
2022-12-12T02:40:20.262Z,49.40
2022-12-12T02:42:56.331Z,51.40
2022-12-12T02:45:30.235Z,52.33
2022-12-12T02:48:05.026Z,50.10
2022-12-12T02:50:34.028Z,55.23
2022-12-12T02:53:01.652Z,50.17
2022-12-12T02:55:32.584Z,50.10
2022-12-12T02:58:04.707Z,49.47
2022-12-12T03:00:40.740Z,49.77
2022-12-12T03:03:47.948Z,47.80
2022-12-12T03:06:56.010Z,52.23
2022-12-12T03:09:30.999Z,45.70
2022-12-12T03:12:08.178Z,50.00
2022-12-12T03:14:49.191Z,44.33
2022-12-12T03:17:25.472Z,48.37
2022-12-12T03:20:01.007Z,52.50
2022-12-12T03:22:35.403Z,49.27
2022-12-12T03:25:09.022Z,48.30
2022-12-12T03:27:41.224Z,46.70
2022-12-12T03:30:13.384Z,51.83
2022-12-12T03:32:47.642Z,45.90
2022-12-12T03:35:21.993Z,49.53
2022-12-12T03:37:54.462Z,55.47
2022-12-12T03:40:29.829Z,49.20
2022-12-12T03:43:04.314Z,47.20
2022-12-12T03:45:38.039Z,48.17
2022-12-12T03:48:10.755Z,51.70
2022-12-12T03:50:45.479Z,47.60
2022-12-12T03:53:18.227Z,46.93
2022-12-12T03:55:50.274Z,53.93
2022-12-12T03:58:24.220Z,60.03
2022-12-12T04:00:54.612Z,52.30
2022-12-12T04:03:28.391Z,57.93
2022-12-12T04:06:20.575Z,52.53
2022-12-12T04:09:02.965Z,57.87
2022-12-12T04:11:53.540Z,50.27
2022-12-12T04:14:33.468Z,46.83
2022-12-12T04:17:03.442Z,46.90
2022-12-12T04:19:52.614Z,47.07
2022-12-12T04:22:43.732Z,51.37
2022-12-12T04:25:26.234Z,46.53
2022-12-12T04:28:01.900Z,68.77
2022-12-12T04:30:32.010Z,52.37
2022-12-12T04:33:06.936Z,64.73
2022-12-12T04:35:39.824Z,50.90
2022-12-12T04:38:11.714Z,46.83
2022-12-12T04:40:44.282Z,52.53
2022-12-12T04:43:16.682Z,50.60
2022-12-12T04:45:48.300Z,47.13
2022-12-12T04:48:18.587Z,52.20
2022-12-12T04:50:49.549Z,45.40
2022-12-12T04:53:25.704Z,53.30
2022-12-12T04:55:58.374Z,47.53
2022-12-12T04:58:26.374Z,51.57
2022-12-12T05:00:59.414Z,49.43
2022-12-12T05:03:33.528Z,50.93
2022-12-12T05:06:07.599Z,53.97
2022-12-12T05:08:39.979Z,63.97
2022-12-12T05:11:08.614Z,48.57
2022-12-12T05:13:38.830Z,52.93
2022-12-12T05:16:15.690Z,46.73
2022-12-12T05:18:43.388Z,59.70
2022-12-12T05:21:10.991Z,49.33
2022-12-12T05:23:39.954Z,53.73
2022-12-12T05:26:08.828Z,46.83
2022-12-12T05:28:37.314Z,49.37
2022-12-12T05:31:05.091Z,47.57
2022-12-12T05:33:32.875Z,56.60
2022-12-12T05:36:00.492Z,54.97
2022-12-12T05:38:28.129Z,71.10
2022-12-12T05:40:57.108Z,62.87
2022-12-12T05:43:24.700Z,53.23
2022-12-12T05:45:52.829Z,49.73
2022-12-12T05:48:24.285Z,50.60
2022-12-12T05:50:52.437Z,48.00
2022-12-12T05:53:20.160Z,51.77
2022-12-12T05:55:49.919Z,48.27
2022-12-12T05:58:18.940Z,54.10
2022-12-12T06:00:47.951Z,51.10
2022-12-12T06:03:15.915Z,56.90
2022-12-12T06:05:43.542Z,48.60
2022-12-12T06:08:11.303Z,53.33
2022-12-12T06:10:38.922Z,51.03
2022-12-12T06:13:06.830Z,49.90
2022-12-12T06:15:35.836Z,48.60
2022-12-12T06:18:03.463Z,47.10
2022-12-12T06:20:32.426Z,46.80
2022-12-12T06:23:00.022Z,49.53
2022-12-12T06:25:27.687Z,46.10
2022-12-12T06:27:55.265Z,51.20
2022-12-12T06:30:22.843Z,49.23
2022-12-12T06:32:51.800Z,49.20
2022-12-12T06:35:19.590Z,49.17
2022-12-12T06:37:48.442Z,50.57
2022-12-12T06:40:16.388Z,61.93
2022-12-12T06:42:48.215Z,48.57
2022-12-12T06:45:16.761Z,47.43
2022-12-12T06:47:44.624Z,53.97
2022-12-12T06:50:15.051Z,46.00
2022-12-12T06:52:44.391Z,48.57
2022-12-12T06:55:12.328Z,46.70
2022-12-12T06:57:40.087Z,47.57
2022-12-12T07:00:09.929Z,45.93
2022-12-12T07:02:37.569Z,44.83
2022-12-12T07:05:05.751Z,44.53
2022-12-12T07:07:34.992Z,47.27
2022-12-12T07:10:02.668Z,46.23
2022-12-12T07:12:30.325Z,45.67
2022-12-12T07:14:57.935Z,44.30
2022-12-12T07:17:25.573Z,44.20
2022-12-12T07:19:53.152Z,44.43
2022-12-12T07:22:20.843Z,45.00
2022-12-12T07:24:51.346Z,45.30
2022-12-12T07:27:21.834Z,51.70
2022-12-12T07:29:49.666Z,46.50
2022-12-12T07:32:17.289Z,45.10
2022-12-12T07:34:44.986Z,47.50
2022-12-12T07:37:12.582Z,47.67
2022-12-12T07:39:40.242Z,48.23
2022-12-12T07:42:09.215Z,47.03
2022-12-12T07:44:36.831Z,45.43
2022-12-12T07:47:04.484Z,46.43
2022-12-12T07:49:32.108Z,48.93
2022-12-12T07:51:59.748Z,44.57
2022-12-12T07:54:27.339Z,47.03
2022-12-12T07:56:54.917Z,43.47
2022-12-12T07:59:23.839Z,44.67
2022-12-12T08:01:51.471Z,42.87
2022-12-12T08:04:19.264Z,47.40
2022-12-12T08:06:46.895Z,46.53
2022-12-12T08:09:14.503Z,44.57
2022-12-12T08:11:46.251Z,49.97
2022-12-12T08:14:14.346Z,45.87
2022-12-12T08:16:43.359Z,43.87
2022-12-12T08:19:10.963Z,45.70
2022-12-12T08:21:38.567Z,42.50
2022-12-12T08:24:06.658Z,43.40
2022-12-12T08:26:34.272Z,42.37
2022-12-12T08:29:01.892Z,45.27
2022-12-12T08:31:30.232Z,43.27
2022-12-12T08:34:00.857Z,43.30
2022-12-12T08:36:30.936Z,41.63
2022-12-12T08:38:59.557Z,43.00
2022-12-12T08:41:27.146Z,40.80
2022-12-12T08:43:55.007Z,45.00
2022-12-12T08:46:22.991Z,42.13
2022-12-12T08:48:51.122Z,45.27
2022-12-12T08:51:20.393Z,45.87
2022-12-12T08:53:49.367Z,44.70
2022-12-12T08:56:18.630Z,45.00
2022-12-12T08:58:46.527Z,42.70
2022-12-12T09:01:16.391Z,43.37
2022-12-12T09:03:44.652Z,44.87
2022-12-12T09:06:12.886Z,47.37
2022-12-12T09:08:42.610Z,44.20
2022-12-12T09:11:10.769Z,43.00
2022-12-12T09:13:39.186Z,42.87
2022-12-12T09:16:08.250Z,43.63
2022-12-12T09:18:36.891Z,45.77
2022-12-12T09:21:05.460Z,46.40
2022-12-12T09:23:33.463Z,46.77
2022-12-12T09:26:07.433Z,47.00
2022-12-12T09:28:35.756Z,46.43
2022-12-12T09:31:05.323Z,47.90
2022-12-12T09:33:32.971Z,47.13
2022-12-12T09:36:01.334Z,45.43
2022-12-12T09:38:29.400Z,46.40
2022-12-12T09:41:00.296Z,47.83
2022-12-12T09:43:32.882Z,47.27
2022-12-12T09:46:01.441Z,49.00
2022-12-12T09:48:33.962Z,47.17
2022-12-12T09:51:01.554Z,47.17
2022-12-12T09:53:29.660Z,46.00
2022-12-12T09:56:05.817Z,44.17
2022-12-12T09:58:46.834Z,45.33
2022-12-12T10:01:24.757Z,42.73
2022-12-12T10:04:03.076Z,43.30
2022-12-12T10:06:39.807Z,43.37
2022-12-12T10:09:26.465Z,41.37
2022-12-12T10:11:55.337Z,44.87
2022-12-12T10:14:32.238Z,45.40
2022-12-12T10:17:01.605Z,46.73
2022-12-12T10:19:32.346Z,48.43
2022-12-12T10:22:05.557Z,43.57
2022-12-12T10:24:40.807Z,44.30
2022-12-12T10:27:11.895Z,45.40
2022-12-12T10:29:44.828Z,42.30
2022-12-12T10:32:21.218Z,42.23
2022-12-12T10:34:59.828Z,44.17
2022-12-12T10:37:39.574Z,44.03
2022-12-12T10:40:25.792Z,46.43
2022-12-12T10:43:01.943Z,42.37
2022-12-12T10:45:45.521Z,46.37
2022-12-12T10:48:13.300Z,44.00
2022-12-12T10:50:45.583Z,43.23
2022-12-12T10:53:13.604Z,44.20
2022-12-12T10:55:48.491Z,44.50
2022-12-12T10:58:17.080Z,43.10
2022-12-12T11:00:47.687Z,40.90
2022-12-12T11:03:27.010Z,40.43
2022-12-12T11:05:56.143Z,40.87
2022-12-12T11:08:28.674Z,40.60
2022-12-12T11:11:02.846Z,40.57
2022-12-12T11:13:31.187Z,41.47
2022-12-12T11:16:02.914Z,41.50
2022-12-12T11:18:30.904Z,45.10
2022-12-12T11:21:07.130Z,41.60
2022-12-12T11:23:36.705Z,41.47
2022-12-12T11:26:12.135Z,42.13
2022-12-12T11:28:41.315Z,43.00
2022-12-12T11:31:13.034Z,43.50
2022-12-12T11:33:46.030Z,46.67
2022-12-12T11:36:16.592Z,47.43
2022-12-12T11:38:49.856Z,44.90
2022-12-12T11:41:17.763Z,47.00
2022-12-12T11:43:59.857Z,44.00
2022-12-12T11:46:30.681Z,44.97
2022-12-12T11:49:00.972Z,45.07
2022-12-12T11:51:35.724Z,42.53
2022-12-12T11:54:08.536Z,40.20
2022-12-12T11:56:44.996Z,41.60
2022-12-12T11:59:40.048Z,43.17
2022-12-12T12:02:41.775Z,42.47
2022-12-12T12:05:21.395Z,42.70
2022-12-12T12:07:58.910Z,45.07
2022-12-12T12:10:42.204Z,45.00
2022-12-12T12:13:23.696Z,43.17
2022-12-12T12:15:59.611Z,42.93
2022-12-12T12:18:44.053Z,42.40
2022-12-12T12:21:38.912Z,42.77
2022-12-12T12:24:24.970Z,40.30
2022-12-12T12:27:05.015Z,43.00
2022-12-12T12:29:53.415Z,40.17
2022-12-12T12:32:32.988Z,41.53
2022-12-12T12:35:19.915Z,39.80
2022-12-12T12:38:02.073Z,40.53
2022-12-12T12:40:46.596Z,38.80
2022-12-12T12:43:26.679Z,40.73
2022-12-12T12:45:59.989Z,42.60
2022-12-12T12:48:31.504Z,44.67
2022-12-12T12:51:07.770Z,41.33
2022-12-12T12:53:41.587Z,43.30
2022-12-12T12:56:23.684Z,42.83
2022-12-12T12:58:56.423Z,42.20
2022-12-12T13:01:28.184Z,41.70
2022-12-12T13:04:02.131Z,42.60
2022-12-12T13:06:42.580Z,39.40
2022-12-12T13:09:23.410Z,41.57
2022-12-12T13:11:55.104Z,38.50
2022-12-12T13:14:30.392Z,36.90
2022-12-12T13:17:00.403Z,39.53
2022-12-12T13:19:35.623Z,38.53
2022-12-12T13:22:09.436Z,40.87
2022-12-12T13:24:44.730Z,46.30
2022-12-12T13:27:19.549Z,43.73
2022-12-12T13:29:52.324Z,39.90
2022-12-12T13:32:52.128Z,40.20
2022-12-12T13:35:28.572Z,38.17
2022-12-12T13:37:58.441Z,40.93
2022-12-12T13:40:30.307Z,53.07
2022-12-12T13:43:07.227Z,58.57
2022-12-12T13:45:44.990Z,47.87
2022-12-12T13:48:38.201Z,45.10
2022-12-12T13:51:36.113Z,42.50
2022-12-12T13:54:40.991Z,40.20
2022-12-12T13:57:15.870Z,43.17
2022-12-12T14:00:19.739Z,40.90
2022-12-12T14:03:12.120Z,83.17
2022-12-12T14:05:42.176Z,67.63
2022-12-12T14:08:22.775Z,43.43
2022-12-12T14:10:58.233Z,43.60
2022-12-12T14:13:36.035Z,42.67
2022-12-12T14:16:07.919Z,44.30
2022-12-12T14:18:39.880Z,45.57
2022-12-12T14:21:11.122Z,48.63
2022-12-12T14:23:42.284Z,56.80
2022-12-12T14:26:48.718Z,49.57
2022-12-12T14:29:28.713Z,52.03
2022-12-12T14:32:15.780Z,53.63
2022-12-12T14:34:54.263Z,51.07
2022-12-12T14:37:37.392Z,45.50
2022-12-12T14:40:14.187Z,43.03
2022-12-12T14:43:20.661Z,46.77
2022-12-12T14:45:38.664Z,55.77
2022-12-12T14:48:18.666Z,49.37
2022-12-12T14:50:50.231Z,51.30
2022-12-12T14:53:20.132Z,105.90
2022-12-12T14:55:50.602Z,59.53
2022-12-12T14:58:21.307Z,57.87
2022-12-12T15:00:52.383Z,59.70
2022-12-12T15:03:29.443Z,64.60
2022-12-12T15:06:27.014Z,52.90
2022-12-12T15:08:55.690Z,50.17
2022-12-12T15:11:25.575Z,72.33
2022-12-12T15:13:54.887Z,60.63
2022-12-12T15:16:29.974Z,56.53
2022-12-12T15:19:00.200Z,49.77
2022-12-12T15:21:28.291Z,48.50
2022-12-12T15:23:55.959Z,52.60
2022-12-12T15:26:29.995Z,48.47
2022-12-12T15:28:58.446Z,50.23
2022-12-12T15:31:27.613Z,48.90
2022-12-12T15:33:55.425Z,50.70
2022-12-12T15:36:27.951Z,49.53
2022-12-12T15:39:11.677Z,52.80
2022-12-12T15:41:39.431Z,60.90
2022-12-12T15:44:07.432Z,55.80
2022-12-12T15:46:37.104Z,51.63
2022-12-12T15:49:04.981Z,58.97
2022-12-12T15:51:33.165Z,61.13
2022-12-12T15:54:01.600Z,59.77
2022-12-12T15:56:30.218Z,59.30
2022-12-12T15:59:16.497Z,48.07
2022-12-12T16:01:45.496Z,53.17
2022-12-12T16:04:25.437Z,51.60
2022-12-12T16:06:53.099Z,49.43
2022-12-12T16:09:23.041Z,49.97
2022-12-12T16:11:51.795Z,60.27
2022-12-12T16:14:38.923Z,57.37
2022-12-12T16:17:13.295Z,65.77
2022-12-12T16:19:43.857Z,58.50
2022-12-12T16:22:29.197Z,63.93
2022-12-12T16:25:10.137Z,62.70
2022-12-12T16:27:37.751Z,72.00
2022-12-12T16:30:06.542Z,73.47
2022-12-12T16:32:36.148Z,73.00
2022-12-12T16:35:04.583Z,77.33
2022-12-12T16:37:33.558Z,71.37
2022-12-12T16:40:01.221Z,61.60
2022-12-12T16:42:29.492Z,65.00
2022-12-12T16:44:57.136Z,54.10
2022-12-12T16:47:25.909Z,54.07
2022-12-12T16:49:54.859Z,58.10
2022-12-12T16:52:22.470Z,51.40
2022-12-12T16:54:53.896Z,52.07
2022-12-12T16:57:21.802Z,55.33
2022-12-12T16:59:49.483Z,54.77
2022-12-12T17:02:20.363Z,49.83
2022-12-12T17:04:48.457Z,55.70
2022-12-12T17:07:17.746Z,49.33
2022-12-12T17:09:45.474Z,50.50
2022-12-12T17:12:13.454Z,51.50
2022-12-12T17:14:41.215Z,51.27
2022-12-12T17:17:08.797Z,47.80
2022-12-12T17:19:36.519Z,49.60
2022-12-12T17:22:04.588Z,49.00
2022-12-12T17:24:33.609Z,49.37
2022-12-12T17:27:01.277Z,51.97
2022-12-12T17:29:28.955Z,53.07
2022-12-12T17:31:56.760Z,55.33
2022-12-12T17:34:24.366Z,49.20
2022-12-12T17:36:51.979Z,52.10
2022-12-12T17:39:19.615Z,51.47
2022-12-12T17:41:48.568Z,51.83
2022-12-12T17:44:16.963Z,48.27
2022-12-12T17:46:44.558Z,45.70
2022-12-12T17:49:12.130Z,46.53
2022-12-12T17:51:39.775Z,48.50
2022-12-12T17:54:07.464Z,48.73
2022-12-12T17:56:35.080Z,46.73
2022-12-12T17:59:06.055Z,45.20
2022-12-12T18:01:33.792Z,46.93
2022-12-12T18:04:03.585Z,51.70
2022-12-12T18:06:33.235Z,52.87
2022-12-12T18:09:01.752Z,50.83
2022-12-12T18:11:31.552Z,54.80
2022-12-12T18:14:01.611Z,55.40
2022-12-12T18:16:32.230Z,52.57
2022-12-12T18:19:00.573Z,53.87
2022-12-12T18:24:19.884Z,56.27
2022-12-12T18:26:51.529Z,53.87
2022-12-12T18:29:19.245Z,50.60
2022-12-12T18:31:48.424Z,57.17
2022-12-12T18:34:16.268Z,63.07
2022-12-12T18:36:43.929Z,61.30
2022-12-12T18:39:11.706Z,51.93
2022-12-12T18:41:39.563Z,54.07
2022-12-12T18:44:09.027Z,54.40
2022-12-12T18:46:42.859Z,59.83
2022-12-12T18:49:15.393Z,64.40
2022-12-12T18:51:44.115Z,52.20
2022-12-12T18:54:15.568Z,64.57
2022-12-12T18:56:45.252Z,74.73
2022-12-12T18:59:13.544Z,69.50
2022-12-12T19:01:41.483Z,62.03
2022-12-12T19:04:12.464Z,64.80
2022-12-12T19:06:44.393Z,53.60
2022-12-12T19:09:14.537Z,66.20
2022-12-12T19:11:43.534Z,54.40
2022-12-12T19:14:12.779Z,50.13
2022-12-12T19:16:40.533Z,47.30
2022-12-12T19:19:09.391Z,46.63
2022-12-12T19:21:38.400Z,55.50
2022-12-12T19:24:10.533Z,69.07
2022-12-12T19:26:39.187Z,61.83
2022-12-12T19:29:08.831Z,53.87
2022-12-12T19:31:36.484Z,59.43
2022-12-12T19:34:05.095Z,53.00
2022-12-12T19:36:33.280Z,70.37
2022-12-12T19:39:02.906Z,54.23
2022-12-12T19:41:32.191Z,57.40
2022-12-12T19:44:01.706Z,54.00
2022-12-12T19:46:32.654Z,50.47
2022-12-12T19:49:01.976Z,57.67
2022-12-12T19:51:32.550Z,54.50
2022-12-12T19:54:01.626Z,69.87
2022-12-12T19:56:31.862Z,54.77
2022-12-12T19:59:01.899Z,61.53
2022-12-12T20:01:31.362Z,56.97
2022-12-12T20:04:02.830Z,54.70
2022-12-12T20:06:30.848Z,48.87
2022-12-12T20:08:59.552Z,53.67
2022-12-12T20:11:27.881Z,62.67
2022-12-12T20:13:57.176Z,48.83
2022-12-12T20:16:28.148Z,53.07
2022-12-12T20:18:56.230Z,55.03
2022-12-12T20:21:59.292Z,46.57
2022-12-12T20:24:15.334Z,54.17
2022-12-12T20:26:43.648Z,49.20
2022-12-12T20:29:13.244Z,50.80
2022-12-12T20:31:45.427Z,53.90
2022-12-12T20:34:14.139Z,58.17
2022-12-12T20:36:44.069Z,60.43
2022-12-12T20:39:16.105Z,49.23
2022-12-12T20:41:45.428Z,61.83
2022-12-12T20:44:14.474Z,49.60
2022-12-12T20:46:45.415Z,59.33
2022-12-12T20:49:15.345Z,54.40
2022-12-12T20:51:55.254Z,62.43
2022-12-12T20:54:24.520Z,50.40
2022-12-12T20:56:52.893Z,47.63
2022-12-12T20:59:20.531Z,66.77
2022-12-12T21:01:49.563Z,87.53
2022-12-12T21:04:17.385Z,94.07
2022-12-12T21:06:49.373Z,70.03
2022-12-12T21:09:23.202Z,57.27
2022-12-12T21:11:52.289Z,58.03
2022-12-12T21:14:19.967Z,92.80
2022-12-12T21:16:48.973Z,131.00
2022-12-12T21:19:18.726Z,136.53
2022-12-12T21:21:46.824Z,95.47
2022-12-12T21:24:17.779Z,73.80
2022-12-12T21:26:46.194Z,60.90
2022-12-12T21:29:15.346Z,55.53
2022-12-12T21:31:50.471Z,58.50
2022-12-12T21:34:21.369Z,53.63
2022-12-12T21:36:51.617Z,65.93
2022-12-12T21:39:19.279Z,53.20
2022-12-12T21:41:47.046Z,60.33
2022-12-12T21:44:14.668Z,69.50
2022-12-12T21:46:43.997Z,60.70
2022-12-12T21:49:26.015Z,59.93
2022-12-12T21:51:56.946Z,48.37
2022-12-12T21:54:25.010Z,53.13
2022-12-12T21:56:52.951Z,53.60
2022-12-12T21:59:20.635Z,47.53
2022-12-12T22:01:48.327Z,65.40
2022-12-12T22:04:16.042Z,54.07
2022-12-12T22:06:45.771Z,50.13
2022-12-12T22:09:15.336Z,55.53
2022-12-12T22:11:49.782Z,55.63
2022-12-12T22:14:21.184Z,53.43
2022-12-12T22:16:49.063Z,47.27
2022-12-12T22:19:17.104Z,62.07
2022-12-12T22:21:46.159Z,54.30
2022-12-12T22:24:15.629Z,49.73
2022-12-12T22:26:45.196Z,58.83
2022-12-12T22:29:14.764Z,51.83
2022-12-12T22:31:43.527Z,56.37
2022-12-12T22:34:13.694Z,57.87
2022-12-12T22:36:41.532Z,57.60
2022-12-12T22:39:18.794Z,71.87
2022-12-12T22:41:47.045Z,65.07
2022-12-12T22:44:16.822Z,58.37
2022-12-12T22:46:45.936Z,58.07
2022-12-12T22:49:15.505Z,66.70
2022-12-12T22:51:44.073Z,58.97
2022-12-12T22:54:12.015Z,58.73
2022-12-12T22:56:42.183Z,55.73
2022-12-12T22:59:13.295Z,58.37
2022-12-12T23:01:41.914Z,67.67
2022-12-12T23:04:11.291Z,59.60
2022-12-12T23:06:38.928Z,63.13
2022-12-12T23:09:09.444Z,62.57
2022-12-12T23:11:37.591Z,64.77
2022-12-12T23:14:08.817Z,62.90
2022-12-12T23:16:37.085Z,56.27
2022-12-12T23:19:06.249Z,64.57
2022-12-12T23:21:35.535Z,63.40
2022-12-12T23:24:03.719Z,61.03
2022-12-12T23:26:32.898Z,62.50
2022-12-12T23:29:01.188Z,66.73
2022-12-12T23:31:32.172Z,59.93
2022-12-12T23:34:02.271Z,64.83
2022-12-12T23:36:31.100Z,58.67
2022-12-12T23:39:00.568Z,58.30
2022-12-12T23:41:28.850Z,60.80
2022-12-12T23:43:58.282Z,62.23
2022-12-12T23:46:29.623Z,69.23
2022-12-12T23:48:59.803Z,59.67
2022-12-12T23:51:29.426Z,61.43
2022-12-12T23:53:57.680Z,59.27
2022-12-12T23:56:25.661Z,59.23
2022-12-12T23:58:53.783Z,65.50
